createdAt,value
2022-12-27T00:00:24.745Z,6.56
2022-12-27T00:02:54.992Z,6.53
2022-12-27T00:05:27.725Z,6.51
2022-12-27T00:07:58.536Z,6.54
2022-12-27T00:10:29.033Z,6.50
2022-12-27T00:12:59.103Z,6.52
2022-12-27T00:15:31.441Z,6.49
2022-12-27T00:18:01.695Z,6.48
2022-12-27T00:20:35.569Z,6.44
2022-12-27T00:23:07.016Z,6.41
2022-12-27T00:25:37.858Z,6.43
2022-12-27T00:28:08.131Z,6.37
2022-12-27T00:30:38.557Z,6.36
2022-12-27T00:33:10.088Z,6.32
2022-12-27T00:35:44.473Z,6.42
2022-12-27T00:38:15.335Z,6.40
2022-12-27T00:40:45.734Z,6.41
2022-12-27T00:43:15.854Z,6.43
2022-12-27T00:45:48.365Z,6.38
2022-12-27T00:48:18.755Z,6.40
2022-12-27T00:50:51.456Z,6.40
2022-12-27T00:53:21.769Z,6.39
2022-12-27T00:55:51.891Z,6.40
2022-12-27T00:58:22.096Z,6.38
2022-12-27T01:00:53.193Z,6.41
2022-12-27T01:03:23.627Z,6.41
2022-12-27T01:05:56.349Z,6.44
2022-12-27T01:08:26.449Z,6.40
2022-12-27T01:10:56.559Z,6.36
2022-12-27T01:13:26.793Z,6.34
2022-12-27T01:15:56.919Z,6.32
2022-12-27T01:18:27.421Z,6.33
2022-12-27T01:21:00.038Z,6.31
2022-12-27T01:23:30.145Z,6.30
2022-12-27T01:26:03.315Z,6.31
2022-12-27T01:28:33.337Z,6.31
2022-12-27T01:31:08.493Z,6.33
2022-12-27T01:33:41.809Z,6.35
2022-12-27T01:36:18.196Z,6.39
2022-12-27T01:38:48.822Z,6.38
2022-12-27T01:41:32.669Z,6.38
2022-12-27T01:44:03.050Z,6.29
2022-12-27T01:46:33.567Z,6.26
2022-12-27T01:49:05.239Z,6.26
2022-12-27T01:51:38.197Z,6.22
2022-12-27T01:54:08.348Z,6.27
2022-12-27T01:56:38.483Z,6.23
2022-12-27T01:59:12.125Z,6.21
2022-12-27T02:01:47.012Z,6.23
2022-12-27T02:04:20.596Z,6.22
2022-12-27T02:06:54.824Z,6.22
2022-12-27T02:09:32.585Z,6.22
2022-12-27T02:12:03.167Z,6.23
2022-12-27T02:14:36.581Z,6.23
2022-12-27T02:17:10.516Z,6.23
2022-12-27T02:19:50.219Z,6.18
2022-12-27T02:23:10.720Z,6.13
2022-12-27T02:26:03.601Z,6.15
2022-12-27T02:29:02.961Z,6.17
2022-12-27T02:31:42.127Z,6.20
2022-12-27T02:34:18.793Z,6.19
2022-12-27T02:36:49.931Z,6.18
2022-12-27T02:39:22.804Z,6.19
2022-12-27T02:42:05.936Z,6.26
2022-12-27T02:44:51.715Z,6.28
2022-12-27T02:47:36.845Z,6.38
2022-12-27T02:50:20.677Z,6.36
2022-12-27T02:53:08.286Z,6.47
2022-12-27T02:56:06.608Z,6.43
2022-12-27T02:58:51.598Z,6.49
2022-12-27T03:01:48.596Z,6.55
2022-12-27T03:04:33.106Z,6.54
2022-12-27T03:07:17.804Z,6.60
2022-12-27T03:10:10.655Z,6.54
2022-12-27T03:13:05.559Z,6.53
2022-12-27T03:16:03.981Z,6.63
2022-12-27T03:19:15.715Z,6.62
2022-12-27T03:22:03.727Z,6.60
2022-12-27T03:24:51.644Z,6.59
2022-12-27T03:27:28.634Z,6.64
2022-12-27T03:30:14.107Z,6.71
2022-12-27T03:33:04.003Z,6.67
2022-12-27T03:35:37.488Z,6.66
2022-12-27T03:38:13.034Z,6.63
2022-12-27T03:41:03.729Z,6.65
2022-12-27T03:43:34.596Z,6.62
2022-12-27T03:46:26.181Z,6.62
2022-12-27T03:49:06.416Z,6.56
2022-12-27T03:51:40.932Z,6.58
2022-12-27T03:54:18.578Z,6.60
2022-12-27T03:56:48.631Z,6.61
2022-12-27T03:59:18.827Z,6.56
2022-12-27T04:01:49.000Z,6.53
2022-12-27T04:04:19.123Z,6.60
2022-12-27T04:06:49.738Z,6.60
2022-12-27T04:09:34.731Z,6.59
2022-12-27T04:12:17.201Z,6.64
2022-12-27T04:14:59.586Z,6.68
2022-12-27T04:17:42.448Z,6.68
2022-12-27T04:20:25.615Z,6.67
2022-12-27T04:23:08.007Z,6.68
2022-12-27T04:25:53.432Z,6.68
2022-12-27T04:28:35.852Z,6.64
2022-12-27T04:31:18.458Z,6.58
2022-12-27T04:34:00.914Z,6.62
2022-12-27T04:36:31.000Z,6.70
2022-12-27T04:39:01.088Z,6.62
2022-12-27T04:41:46.123Z,6.54
2022-12-27T04:44:28.800Z,6.51
2022-12-27T04:47:11.420Z,6.47
2022-12-27T04:49:53.849Z,6.41
2022-12-27T04:52:38.292Z,6.40
2022-12-27T04:55:17.373Z,6.36
2022-12-27T04:57:50.095Z,6.32
2022-12-27T05:00:35.119Z,6.27
2022-12-27T05:03:07.846Z,6.28
2022-12-27T05:05:40.118Z,6.23
2022-12-27T05:08:23.230Z,6.18
2022-12-27T05:11:05.887Z,6.13
2022-12-27T05:13:51.090Z,6.04
2022-12-27T05:16:21.410Z,6.00
2022-12-27T05:18:51.861Z,5.96
2022-12-27T05:21:22.370Z,5.93
2022-12-27T05:24:05.804Z,5.87
2022-12-27T05:26:37.547Z,5.81
2022-12-27T05:29:11.220Z,5.73
2022-12-27T05:31:41.555Z,5.69
2022-12-27T05:34:11.727Z,5.65
2022-12-27T05:36:41.953Z,5.61
2022-12-27T05:39:12.201Z,5.53
2022-12-27T05:41:42.667Z,5.50
2022-12-27T05:44:15.356Z,5.58
2022-12-27T05:46:45.454Z,5.57
2022-12-27T05:49:15.789Z,5.54
2022-12-27T05:51:45.891Z,5.50
2022-12-27T05:54:16.029Z,5.50
2022-12-27T05:56:46.164Z,5.43
2022-12-27T05:59:18.902Z,5.42
2022-12-27T06:01:49.095Z,5.42
2022-12-27T06:04:19.412Z,5.34
2022-12-27T06:06:49.681Z,5.30
2022-12-27T06:09:19.952Z,5.22
2022-12-27T06:11:50.189Z,5.27
2022-12-27T06:14:23.109Z,5.25
2022-12-27T06:16:53.365Z,5.20
2022-12-27T06:19:23.869Z,5.19
2022-12-27T06:21:54.090Z,5.21
2022-12-27T06:24:24.194Z,5.31
2022-12-27T06:26:54.879Z,5.29
2022-12-27T06:29:27.898Z,5.44
2022-12-27T06:31:59.213Z,5.55
2022-12-27T06:34:29.252Z,5.64
2022-12-27T06:36:59.301Z,5.57
2022-12-27T06:39:29.646Z,5.65
2022-12-27T06:41:59.781Z,5.80
2022-12-27T06:44:32.643Z,5.82
2022-12-27T06:47:04.496Z,5.86
2022-12-27T06:49:34.585Z,5.82
2022-12-27T06:52:04.679Z,5.99
2022-12-27T06:54:34.796Z,5.82
2022-12-27T06:57:06.265Z,5.90
2022-12-27T06:59:39.192Z,6.00
2022-12-27T07:02:09.885Z,6.11
2022-12-27T07:04:41.143Z,6.10
2022-12-27T07:07:15.606Z,6.43
2022-12-27T07:09:46.465Z,6.66
2022-12-27T07:12:17.576Z,6.64
2022-12-27T07:14:50.770Z,6.57
2022-12-27T07:17:23.147Z,6.44
2022-12-27T07:19:53.464Z,6.44
2022-12-27T07:22:23.952Z,6.60
2022-12-27T07:24:59.192Z,6.65
2022-12-27T07:27:31.179Z,7.10
2022-12-27T07:30:04.797Z,7.15
2022-12-27T07:32:37.899Z,7.13
2022-12-27T07:35:09.735Z,7.18
2022-12-27T07:37:40.624Z,7.19
2022-12-27T07:40:12.465Z,7.24
2022-12-27T07:42:42.851Z,7.32
2022-12-27T07:45:16.206Z,7.42
2022-12-27T07:47:46.422Z,7.45
2022-12-27T07:50:16.668Z,7.44
2022-12-27T07:52:48.183Z,7.65
2022-12-27T07:55:19.643Z,7.77
2022-12-27T07:57:50.810Z,7.82
2022-12-27T08:00:29.682Z,7.89
2022-12-27T08:03:01.131Z,7.90
2022-12-27T08:05:36.862Z,8.00
2022-12-27T08:08:13.314Z,8.09
2022-12-27T08:10:48.301Z,8.11
2022-12-27T08:13:26.706Z,8.11
2022-12-27T08:16:02.638Z,8.13
2022-12-27T08:18:33.668Z,8.29
2022-12-27T08:21:14.101Z,8.30
2022-12-27T08:23:46.921Z,8.30
2022-12-27T08:26:22.009Z,8.30
2022-12-27T08:28:55.882Z,8.30
2022-12-27T08:31:49.793Z,8.26
2022-12-27T08:34:25.014Z,8.31
2022-12-27T08:36:56.731Z,8.33
2022-12-27T08:39:30.414Z,8.40
2022-12-27T08:42:04.584Z,8.35
2022-12-27T08:44:39.663Z,8.49
2022-12-27T08:47:17.529Z,8.46
2022-12-27T08:49:57.065Z,8.51
2022-12-27T08:52:33.721Z,8.38
2022-12-27T08:55:06.552Z,8.40
2022-12-27T08:57:46.623Z,8.39
2022-12-27T09:00:19.587Z,8.37
2022-12-27T09:02:59.034Z,8.39
2022-12-27T09:05:41.671Z,8.40
2022-12-27T09:08:15.295Z,8.39
2022-12-27T09:10:48.905Z,8.46
2022-12-27T09:13:23.863Z,8.54
2022-12-27T09:16:00.550Z,8.71
2022-12-27T09:18:51.432Z,8.93
2022-12-27T09:21:24.519Z,8.89
2022-12-27T09:23:58.636Z,8.80
2022-12-27T09:26:34.237Z,8.65
2022-12-27T09:29:19.533Z,8.57
2022-12-27T09:31:57.818Z,8.56
2022-12-27T09:34:33.613Z,8.51
2022-12-27T09:37:06.862Z,8.36
2022-12-27T09:39:39.932Z,8.27
2022-12-27T09:45:21.199Z,8.46
2022-12-27T09:48:05.028Z,8.52
2022-12-27T09:50:50.660Z,8.45
2022-12-27T09:53:26.403Z,8.44
2022-12-27T09:56:00.509Z,8.24
2022-12-27T09:58:52.282Z,8.18
2022-12-27T10:01:40.673Z,8.07
2022-12-27T10:04:19.465Z,8.02
2022-12-27T10:07:13.755Z,7.95
2022-12-27T10:09:58.909Z,7.85
2022-12-27T10:13:09.711Z,7.80
2022-12-27T10:16:01.553Z,7.89
2022-12-27T10:18:53.845Z,7.85
2022-12-27T10:21:26.413Z,7.98
2022-12-27T10:24:09.160Z,7.99
2022-12-27T10:26:44.275Z,7.89
2022-12-27T10:29:21.947Z,7.81
2022-12-27T10:32:04.582Z,7.66
2022-12-27T10:34:39.272Z,7.82
2022-12-27T10:37:16.889Z,7.86
2022-12-27T10:39:54.660Z,7.92
2022-12-27T10:42:38.506Z,7.95
2022-12-27T10:45:34.960Z,8.00
2022-12-27T10:48:22.732Z,8.12
2022-12-27T10:50:59.744Z,7.97
2022-12-27T10:54:06.922Z,7.98
2022-12-27T10:56:42.790Z,7.79
2022-12-27T10:59:21.939Z,7.83
2022-12-27T11:02:10.428Z,7.80
2022-12-27T11:05:00.278Z,7.77
2022-12-27T11:07:35.359Z,7.64
2022-12-27T11:10:21.848Z,7.55
2022-12-27T11:13:06.200Z,7.69
2022-12-27T11:15:42.873Z,7.75
2022-12-27T11:18:24.633Z,7.62
2022-12-27T11:21:04.773Z,7.66
2022-12-27T11:23:39.911Z,7.68
2022-12-27T11:26:13.509Z,7.73
2022-12-27T11:28:59.101Z,7.70
2022-12-27T11:31:42.118Z,7.67
2022-12-27T11:34:24.825Z,7.61
2022-12-27T11:36:58.836Z,7.55
2022-12-27T11:39:51.365Z,7.52
2022-12-27T11:42:35.400Z,7.58
2022-12-27T11:45:30.009Z,7.50
2022-12-27T11:48:08.215Z,7.52
2022-12-27T11:50:54.130Z,7.39
2022-12-27T11:53:57.291Z,7.43
2022-12-27T11:56:31.723Z,7.39
2022-12-27T11:59:39.860Z,7.25
2022-12-27T12:02:38.401Z,7.02
2022-12-27T12:05:42.137Z,6.93
2022-12-27T12:09:13.965Z,6.95
2022-12-27T12:12:04.324Z,6.90
2022-12-27T12:15:01.479Z,6.91
2022-12-27T12:18:04.840Z,6.81
2022-12-27T12:21:23.543Z,6.74
2022-12-27T12:24:35.105Z,6.84
2022-12-27T12:27:30.828Z,6.80
2022-12-27T12:30:49.213Z,6.78
2022-12-27T12:33:51.690Z,6.78
2022-12-27T12:36:54.562Z,6.82
2022-12-27T12:39:50.360Z,6.71
2022-12-27T12:42:29.466Z,6.81
2022-12-27T12:45:40.149Z,6.75
2022-12-27T12:48:55.270Z,6.67
2022-12-27T12:51:39.055Z,6.67
2022-12-27T12:54:39.327Z,6.81
2022-12-27T12:57:24.219Z,6.62
2022-12-27T13:00:09.515Z,6.62
2022-12-27T13:03:15.502Z,6.59
2022-12-27T13:05:56.712Z,6.58
2022-12-27T13:08:43.259Z,6.45
2022-12-27T13:11:46.668Z,6.36
2022-12-27T13:14:44.707Z,6.28
2022-12-27T13:17:24.980Z,6.18
2022-12-27T13:20:14.465Z,6.16
2022-12-27T13:23:08.337Z,6.10
2022-12-27T13:25:53.518Z,6.03
2022-12-27T13:28:39.263Z,6.08
2022-12-27T13:31:24.822Z,6.00
2022-12-27T13:34:15.817Z,5.96
2022-12-27T13:37:03.614Z,5.88
2022-12-27T13:40:07.469Z,5.92
2022-12-27T13:43:11.462Z,5.87
2022-12-27T13:46:04.748Z,5.89
2022-12-27T13:49:00.577Z,5.80
2022-12-27T13:51:49.948Z,5.75
2022-12-27T13:54:55.720Z,5.68
2022-12-27T13:58:15.823Z,5.53
2022-12-27T14:01:04.219Z,5.45
2022-12-27T14:04:02.478Z,5.37
2022-12-27T14:06:57.799Z,5.33
2022-12-27T14:09:59.285Z,5.37
2022-12-27T14:13:03.866Z,5.21
2022-12-27T14:16:31.500Z,5.01
2022-12-27T14:19:36.623Z,4.86
2022-12-27T14:22:37.561Z,4.72
2022-12-27T14:26:00.790Z,4.72
2022-12-27T14:29:28.369Z,4.52
2022-12-27T14:32:22.104Z,4.38
2022-12-27T14:35:27.738Z,4.33
2022-12-27T14:38:39.173Z,4.28
2022-12-27T14:41:42.222Z,4.29
2022-12-27T14:44:51.915Z,4.23
2022-12-27T14:47:59.119Z,4.11
2022-12-27T14:51:50.023Z,3.95
2022-12-27T14:54:46.049Z,3.78
2022-12-27T14:57:33.204Z,3.64
2022-12-27T15:00:18.592Z,3.51
2022-12-27T15:03:11.832Z,3.42
2022-12-27T15:05:56.880Z,3.36
2022-12-27T15:08:48.965Z,3.34
2022-12-27T15:11:33.312Z,3.48
2022-12-27T15:14:23.087Z,3.48
2022-12-27T15:17:16.675Z,3.48
2022-12-27T15:20:19.191Z,3.18
2022-12-27T15:23:04.592Z,3.04
2022-12-27T15:25:59.635Z,2.85
2022-12-27T15:28:44.124Z,2.69
2022-12-27T15:31:25.289Z,2.49
2022-12-27T15:34:15.754Z,2.36
2022-12-27T15:36:51.601Z,2.46
2022-12-27T15:39:56.021Z,2.39
2022-12-27T15:42:53.306Z,2.27
2022-12-27T15:45:39.312Z,2.20
2022-12-27T15:49:06.098Z,2.04
2022-12-27T15:51:46.035Z,1.92
2022-12-27T15:54:38.695Z,1.83
2022-12-27T15:57:59.046Z,2.10
2022-12-27T16:00:36.303Z,2.22
2022-12-27T16:03:33.354Z,2.18
2022-12-27T16:06:04.808Z,2.10
2022-12-27T16:08:40.723Z,2.04
2022-12-27T16:11:14.973Z,1.97
2022-12-27T16:13:48.486Z,1.93
2022-12-27T16:16:54.771Z,2.27
2022-12-27T16:20:09.331Z,2.33
2022-12-27T16:22:45.799Z,2.34
2022-12-27T16:25:36.276Z,2.29
2022-12-27T16:28:09.949Z,2.24
2022-12-27T16:30:51.977Z,2.18
2022-12-27T16:33:37.935Z,2.02
2022-12-27T16:36:33.889Z,1.88
2022-12-27T16:39:33.782Z,1.85
2022-12-27T16:42:08.268Z,1.85
2022-12-27T16:44:55.876Z,1.83
2022-12-27T16:48:01.118Z,1.70
2022-12-27T16:51:10.313Z,1.64
2022-12-27T16:53:55.936Z,1.52
2022-12-27T16:56:35.733Z,1.40
2022-12-27T16:59:33.615Z,1.34
2022-12-27T17:02:04.589Z,1.35
2022-12-27T17:04:54.723Z,1.29
2022-12-27T17:07:56.120Z,1.17
2022-12-27T17:10:58.529Z,1.25
2022-12-27T17:13:48.059Z,1.50
2022-12-27T17:16:23.002Z,1.54
2022-12-27T17:18:58.605Z,1.61
2022-12-27T17:21:35.440Z,1.69
2022-12-27T17:24:16.726Z,1.62
2022-12-27T17:27:17.724Z,1.49
2022-12-27T17:30:11.492Z,1.38
2022-12-27T17:33:23.109Z,1.33
2022-12-27T17:36:24.992Z,1.18
2022-12-27T17:39:11.482Z,1.00
2022-12-27T17:42:07.928Z,0.84
2022-12-27T17:45:00.837Z,0.72
2022-12-27T17:47:53.615Z,0.57
2022-12-27T17:50:27.311Z,0.47
2022-12-27T17:53:34.432Z,0.31
2022-12-27T17:56:37.907Z,0.34
2022-12-27T17:59:13.537Z,0.31
2022-12-27T18:01:53.776Z,0.27
2022-12-27T18:04:30.502Z,0.20
2022-12-27T18:07:03.150Z,0.12
2022-12-27T18:09:46.656Z,0.06
2022-12-27T18:12:24.135Z,0.04
2022-12-27T18:14:58.456Z,-0.03
2022-12-27T18:17:32.568Z,-0.13
2022-12-27T18:20:23.917Z,-0.18
2022-12-27T18:22:54.014Z,-0.19
2022-12-27T18:25:28.125Z,-0.27
2022-12-27T18:28:02.839Z,-0.26
2022-12-27T18:30:39.094Z,-0.30
2022-12-27T18:33:10.518Z,-0.33
2022-12-27T18:35:45.635Z,-0.42
2022-12-27T18:38:25.088Z,-0.46
2022-12-27T18:41:03.429Z,-0.43
2022-12-27T18:43:35.399Z,-0.42
2022-12-27T18:46:07.392Z,-0.41
2022-12-27T18:48:39.077Z,-0.43
2022-12-27T18:51:12.131Z,-0.44
2022-12-27T18:53:42.770Z,-0.47
2022-12-27T18:56:29.344Z,-0.46
2022-12-27T18:59:05.894Z,-0.51
2022-12-27T19:01:44.142Z,-0.49
2022-12-27T19:04:25.732Z,-0.41
2022-12-27T19:07:08.436Z,-0.42
2022-12-27T19:09:41.749Z,-0.44
2022-12-27T19:12:24.760Z,-0.49
2022-12-27T19:14:55.270Z,-0.50
2022-12-27T19:17:29.810Z,-0.53
2022-12-27T19:20:03.827Z,-0.59
2022-12-27T19:22:43.156Z,-0.68
2022-12-27T19:25:25.237Z,-0.68
2022-12-27T19:28:27.123Z,-0.63
2022-12-27T19:31:16.501Z,-0.60
2022-12-27T19:33:49.203Z,-0.64
2022-12-27T19:36:19.627Z,-0.64
2022-12-27T19:38:52.323Z,-0.65
2022-12-27T19:41:22.503Z,-0.62
2022-12-27T19:43:52.882Z,-0.66
2022-12-27T19:46:30.561Z,-0.63
2022-12-27T19:49:32.263Z,-0.66
2022-12-27T19:51:51.150Z,-0.64
2022-12-27T19:54:25.633Z,-0.65
2022-12-27T19:56:55.986Z,-0.62
2022-12-27T19:59:27.668Z,-0.56
2022-12-27T20:01:57.857Z,-0.59
2022-12-27T20:04:28.081Z,-0.62
2022-12-27T20:06:58.513Z,-0.62
2022-12-27T20:09:31.514Z,-0.67
2022-12-27T20:12:02.592Z,-0.71
2022-12-27T20:14:35.245Z,-0.75
2022-12-27T20:17:05.327Z,-0.81
2022-12-27T20:19:36.996Z,-0.80
2022-12-27T20:22:07.578Z,-0.76
2022-12-27T20:24:40.261Z,-0.79
2022-12-27T20:27:10.376Z,-0.70
2022-12-27T20:29:40.505Z,-0.66
2022-12-27T20:32:10.662Z,-0.69
2022-12-27T20:34:43.259Z,-0.68
2022-12-27T20:37:13.829Z,-0.61
2022-12-27T20:39:47.135Z,-0.61
2022-12-27T20:42:17.452Z,-0.62
2022-12-27T20:44:48.582Z,-0.64
2022-12-27T20:47:19.551Z,-0.68
2022-12-27T20:49:50.997Z,-0.68
2022-12-27T20:52:28.963Z,-0.64
2022-12-27T20:55:04.310Z,-0.69
2022-12-27T20:57:36.526Z,-0.71
2022-12-27T21:00:10.760Z,-0.72
2022-12-27T21:02:45.166Z,-0.73
2022-12-27T21:05:16.730Z,-0.68
2022-12-27T21:07:48.007Z,-0.65
2022-12-27T21:10:21.308Z,-0.66
2022-12-27T21:12:52.557Z,-0.60
2022-12-27T21:15:25.097Z,-0.67
2022-12-27T21:17:56.595Z,-0.71
2022-12-27T21:20:27.847Z,-0.75
2022-12-27T21:23:01.646Z,-0.76
2022-12-27T21:25:35.370Z,-0.69
2022-12-27T21:28:08.139Z,-0.60
2022-12-27T21:30:39.271Z,-0.52
2022-12-27T21:33:09.712Z,-0.34
2022-12-27T21:35:40.531Z,-0.44
2022-12-27T21:38:11.504Z,-0.58
2022-12-27T21:40:45.838Z,-0.68
2022-12-27T21:43:16.570Z,-0.69
2022-12-27T21:45:48.690Z,-0.69
2022-12-27T21:48:19.670Z,-0.69
2022-12-27T21:50:51.867Z,-0.77
2022-12-27T21:53:22.727Z,-0.81
2022-12-27T21:56:00.773Z,-0.80
2022-12-27T21:58:33.683Z,-0.82
2022-12-27T22:01:08.907Z,-0.86
2022-12-27T22:03:41.598Z,-0.94
2022-12-27T22:06:14.769Z,-0.98
2022-12-27T22:08:46.537Z,-1.04
2022-12-27T22:11:24.994Z,-1.04
2022-12-27T22:13:55.965Z,-1.06
2022-12-27T22:16:28.240Z,-0.96
2022-12-27T22:18:59.249Z,-0.96
2022-12-27T22:21:32.290Z,-0.92
2022-12-27T22:24:05.830Z,-1.00
2022-12-27T22:26:41.938Z,-1.03
2022-12-27T22:29:12.687Z,-1.01
2022-12-27T22:31:44.342Z,-1.02
2022-12-27T22:34:14.568Z,-1.03
2022-12-27T22:36:45.913Z,-1.03
2022-12-27T22:39:17.331Z,-1.04
2022-12-27T22:41:50.429Z,-0.98
2022-12-27T22:44:22.039Z,-0.93
2022-12-27T22:49:44.181Z,-1.02
2022-12-27T22:52:14.779Z,-1.00
2022-12-27T22:55:05.402Z,-1.04
2022-12-27T22:57:40.637Z,-1.09
2022-12-27T23:00:17.332Z,-1.06
2022-12-27T23:02:48.309Z,-1.12
2022-12-27T23:05:20.640Z,-1.10
2022-12-27T23:08:05.147Z,-1.01
2022-12-27T23:10:38.763Z,-0.99
2022-12-27T23:13:13.332Z,-1.02
2022-12-27T23:15:45.908Z,-1.02
2022-12-27T23:18:21.106Z,-0.98
2022-12-27T23:21:20.709Z,-1.00
2022-12-27T23:23:44.442Z,-1.04
2022-12-27T23:26:18.015Z,-1.13
2022-12-27T23:28:54.709Z,-1.16
2022-12-27T23:31:29.048Z,-1.14
2022-12-27T23:33:59.648Z,-1.14
2022-12-27T23:36:31.785Z,-1.24
2022-12-27T23:39:02.863Z,-1.26
2022-12-27T23:41:37.257Z,-1.17
2022-12-27T23:44:11.157Z,-1.24
2022-12-27T23:46:41.280Z,-1.32
2022-12-27T23:49:11.574Z,-1.38
2022-12-27T23:51:42.569Z,-1.39
2022-12-27T23:54:13.779Z,-1.44
2022-12-27T23:56:44.571Z,-1.45
2022-12-27T23:59:19.096Z,-1.46
